createdAt,value
2022-10-18T00:00:48.331Z,62.30
2022-10-18T00:01:48.378Z,62.26
2022-10-18T00:02:48.345Z,62.24
2022-10-18T00:04:48.491Z,62.30
2022-10-18T00:07:48.350Z,62.27
2022-10-18T00:09:48.381Z,62.28
2022-10-18T00:10:52.330Z,62.25
2022-10-18T00:11:48.366Z,62.25
2022-10-18T00:12:48.361Z,62.27
2022-10-18T00:13:48.365Z,62.26
2022-10-18T00:14:48.353Z,62.30
2022-10-18T00:15:48.376Z,62.35
2022-10-18T00:16:48.390Z,62.39
2022-10-18T00:17:48.385Z,62.45
2022-10-18T00:18:48.372Z,62.55
2022-10-18T00:19:48.385Z,62.58
2022-10-18T00:20:48.388Z,62.52
2022-10-18T00:21:48.390Z,62.58
2022-10-18T00:22:48.394Z,62.79
2022-10-18T00:23:48.416Z,62.83
2022-10-18T00:24:48.397Z,62.86
2022-10-18T00:25:48.401Z,63.37
2022-10-18T00:26:48.394Z,63.88
2022-10-18T00:28:48.461Z,64.42
2022-10-18T00:29:48.442Z,65.36
2022-10-18T00:30:51.440Z,65.36
2022-10-18T00:31:48.407Z,65.46
2022-10-18T00:32:48.433Z,65.55
2022-10-18T00:33:48.432Z,65.38
2022-10-18T00:34:48.444Z,65.21
2022-10-18T00:35:48.449Z,64.87
2022-10-18T00:36:48.426Z,64.69
2022-10-18T00:37:48.427Z,64.47
2022-10-18T00:38:48.445Z,64.33
2022-10-18T00:39:48.496Z,64.13
2022-10-18T00:41:48.473Z,64.12
2022-10-18T00:42:48.438Z,64.08
2022-10-18T00:45:48.458Z,63.97
2022-10-18T00:46:48.505Z,63.98
2022-10-18T00:47:52.616Z,63.99
2022-10-18T00:48:48.515Z,63.99
2022-10-18T00:50:48.474Z,63.98
2022-10-18T00:51:48.465Z,64.13
2022-10-18T00:52:48.478Z,64.22
2022-10-18T00:54:48.472Z,64.16
2022-10-18T00:55:48.461Z,64.00
2022-10-18T00:56:48.466Z,64.02
2022-10-18T00:57:48.551Z,64.03
2022-10-18T01:02:48.513Z,64.00
2022-10-18T01:03:48.622Z,64.00
2022-10-18T01:05:48.522Z,64.06
2022-10-18T01:06:48.577Z,64.15
2022-10-18T01:07:48.515Z,64.09
2022-10-18T01:09:48.505Z,64.22
2022-10-18T01:10:48.542Z,64.32
2022-10-18T01:11:48.512Z,64.22
2022-10-18T01:13:48.501Z,64.19
2022-10-18T01:14:48.540Z,64.22
2022-10-18T01:15:48.589Z,64.10
2022-10-18T01:16:48.505Z,64.10
2022-10-18T01:21:48.524Z,64.16
2022-10-18T01:22:48.527Z,64.37
2022-10-18T01:23:48.550Z,64.41
2022-10-18T01:24:52.909Z,64.48
2022-10-18T01:25:48.543Z,64.48
2022-10-18T01:26:48.538Z,64.40
2022-10-18T01:27:48.574Z,64.25
2022-10-18T01:28:48.692Z,64.11
2022-10-18T01:29:48.575Z,63.72
2022-10-18T01:31:48.580Z,63.88
2022-10-18T01:32:48.570Z,63.83
2022-10-18T01:33:48.599Z,63.77
2022-10-18T01:34:48.577Z,63.72
2022-10-18T01:35:48.600Z,63.71
2022-10-18T01:36:48.585Z,63.72
2022-10-18T01:37:48.580Z,63.61
2022-10-18T01:39:48.596Z,63.57
2022-10-18T01:40:48.588Z,63.53
2022-10-18T01:42:48.579Z,63.47
2022-10-18T01:43:48.603Z,63.44
2022-10-18T01:44:48.612Z,63.38
2022-10-18T01:45:48.604Z,63.31
2022-10-18T01:47:48.608Z,63.31
2022-10-18T01:49:48.635Z,63.39
2022-10-18T01:50:48.621Z,63.41
2022-10-18T01:51:48.624Z,63.38
2022-10-18T01:52:48.643Z,63.34
2022-10-18T01:55:48.609Z,63.33
2022-10-18T01:56:48.647Z,63.33
2022-10-18T01:58:48.652Z,63.25
2022-10-18T01:59:48.645Z,63.21
2022-10-18T02:00:48.628Z,63.28
2022-10-18T02:01:53.082Z,63.34
2022-10-18T02:02:48.662Z,63.34
2022-10-18T02:03:48.645Z,63.39
2022-10-18T02:04:48.654Z,63.33
2022-10-18T02:05:48.751Z,63.39
2022-10-18T02:06:48.636Z,63.37
2022-10-18T02:07:55.354Z,63.40
2022-10-18T02:08:48.664Z,63.38
2022-10-18T02:09:48.679Z,63.46
2022-10-18T02:11:48.673Z,63.55
2022-10-18T02:14:48.674Z,63.46
2022-10-18T02:15:48.670Z,63.46
2022-10-18T02:17:48.683Z,63.61
2022-10-18T02:23:48.696Z,63.62
2022-10-18T02:26:48.703Z,63.60
2022-10-18T02:27:48.710Z,63.59
2022-10-18T02:28:48.713Z,63.56
2022-10-18T02:30:49.212Z,63.50
2022-10-18T02:31:48.712Z,63.49
2022-10-18T02:34:48.724Z,63.49
2022-10-18T02:35:48.765Z,63.39
2022-10-18T02:36:48.750Z,63.31
2022-10-18T02:37:48.779Z,63.30
2022-10-18T02:38:53.329Z,63.37
2022-10-18T02:39:48.741Z,63.37
2022-10-18T02:40:48.734Z,63.51
2022-10-18T02:41:48.752Z,63.56
2022-10-18T02:42:48.783Z,63.61
2022-10-18T02:45:48.742Z,63.67
2022-10-18T02:46:48.756Z,63.66
2022-10-18T02:51:48.785Z,63.76
2022-10-18T02:52:48.770Z,63.90
2022-10-18T02:53:48.783Z,63.78
2022-10-18T02:54:48.761Z,63.98
2022-10-18T02:58:48.777Z,64.24
2022-10-18T02:59:48.804Z,64.30
2022-10-18T03:00:48.831Z,64.34
2022-10-18T03:02:48.794Z,64.35
2022-10-18T03:04:48.810Z,64.33
2022-10-18T03:05:48.850Z,64.31
2022-10-18T03:06:48.802Z,64.23
2022-10-18T03:08:48.835Z,64.25
2022-10-18T03:09:48.873Z,64.25
2022-10-18T03:10:48.876Z,64.22
2022-10-18T03:11:48.849Z,64.21
2022-10-18T03:12:48.852Z,64.21
2022-10-18T03:14:48.828Z,64.32
2022-10-18T03:16:48.839Z,64.25
2022-10-18T03:17:49.571Z,64.29
2022-10-18T03:18:48.870Z,64.29
2022-10-18T03:19:48.879Z,64.22
2022-10-18T03:23:48.885Z,64.08
2022-10-18T03:24:48.892Z,64.14
2022-10-18T03:27:48.882Z,63.97
2022-10-18T03:28:49.000Z,63.97
2022-10-18T03:29:48.877Z,63.94
2022-10-18T03:30:49.977Z,63.95
2022-10-18T03:33:48.923Z,63.97
2022-10-18T03:34:48.912Z,63.82
2022-10-18T03:35:48.888Z,63.82
2022-10-18T03:36:48.922Z,63.77
2022-10-18T03:37:48.879Z,63.77
2022-10-18T03:38:48.924Z,63.80
2022-10-18T03:39:48.879Z,63.80
2022-10-18T03:40:48.891Z,63.79
2022-10-18T03:41:48.892Z,63.80
2022-10-18T03:42:48.907Z,63.84
2022-10-18T03:43:48.925Z,63.84
2022-10-18T03:44:48.932Z,63.91
2022-10-18T03:45:48.930Z,63.91
2022-10-18T03:46:48.926Z,63.94
2022-10-18T03:47:48.939Z,64.08
2022-10-18T03:49:51.962Z,64.00
2022-10-18T03:52:53.815Z,64.11
2022-10-18T03:54:48.937Z,64.17
2022-10-18T03:55:48.945Z,64.16
2022-10-18T03:56:48.994Z,64.14
2022-10-18T03:57:48.952Z,64.14
2022-10-18T03:58:48.941Z,64.10
2022-10-18T03:59:48.927Z,64.09
2022-10-18T04:00:48.973Z,64.08
2022-10-18T04:02:52.020Z,64.17
2022-10-18T04:03:48.941Z,64.08
2022-10-18T04:06:48.943Z,64.11
2022-10-18T04:08:48.988Z,64.00
2022-10-18T04:09:48.984Z,63.96
2022-10-18T04:10:48.960Z,63.96
2022-10-18T04:12:48.986Z,64.21
2022-10-18T04:13:48.946Z,64.16
2022-10-18T04:14:48.978Z,64.32
2022-10-18T04:15:48.987Z,64.39
2022-10-18T04:16:49.624Z,64.44
2022-10-18T04:17:48.995Z,64.34
2022-10-18T04:18:49.063Z,64.34
2022-10-18T04:20:49.085Z,64.26
2022-10-18T04:21:48.999Z,64.25
2022-10-18T04:22:48.996Z,64.26
2022-10-18T04:23:48.991Z,64.28
2022-10-18T04:25:49.011Z,64.21
2022-10-18T04:26:49.014Z,64.31
2022-10-18T04:27:49.003Z,64.52
2022-10-18T04:29:54.010Z,64.67
2022-10-18T04:30:49.040Z,64.71
2022-10-18T04:31:49.019Z,64.71
2022-10-18T04:33:49.016Z,64.44
2022-10-18T04:36:49.043Z,64.34
2022-10-18T04:37:49.068Z,64.28
2022-10-18T04:38:49.032Z,64.32
2022-10-18T04:39:52.610Z,64.29
2022-10-18T04:40:49.057Z,64.26
2022-10-18T04:41:49.034Z,64.26
2022-10-18T04:42:49.030Z,64.32
2022-10-18T04:43:49.061Z,64.48
2022-10-18T04:44:49.049Z,64.45
2022-10-18T04:46:49.078Z,64.26
2022-10-18T04:48:49.055Z,64.35
2022-10-18T04:49:49.071Z,64.36
2022-10-18T04:50:49.081Z,64.40
2022-10-18T04:51:49.078Z,64.46
2022-10-18T04:54:49.061Z,64.48
2022-10-18T04:56:49.089Z,64.45
2022-10-18T04:57:49.067Z,64.45
2022-10-18T04:58:49.095Z,64.52
2022-10-18T04:59:49.082Z,64.60
2022-10-18T05:00:49.099Z,64.63
2022-10-18T05:01:49.172Z,64.54
2022-10-18T05:02:49.118Z,64.44
2022-10-18T05:03:49.238Z,64.34
2022-10-18T05:04:49.097Z,64.34
2022-10-18T05:06:01.290Z,64.31
2022-10-18T05:06:49.092Z,64.33
2022-10-18T05:07:49.093Z,64.27
2022-10-18T05:09:49.116Z,64.24
2022-10-18T05:10:49.139Z,64.30
2022-10-18T05:11:49.113Z,64.37
2022-10-18T05:12:49.099Z,64.41
2022-10-18T05:13:50.907Z,64.41
2022-10-18T05:14:49.137Z,64.59
2022-10-18T05:15:49.134Z,65.02
2022-10-18T05:16:49.125Z,65.14
2022-10-18T05:17:49.159Z,65.12
2022-10-18T05:18:49.119Z,65.08
2022-10-18T05:19:49.141Z,65.16
2022-10-18T05:22:49.261Z,65.11
2022-10-18T05:23:49.170Z,65.10
2022-10-18T05:24:49.166Z,65.12
2022-10-18T05:25:49.146Z,65.12
2022-10-18T05:26:49.166Z,65.14
2022-10-18T05:27:49.174Z,65.09
2022-10-18T05:29:49.153Z,65.09
2022-10-18T05:30:49.175Z,65.02
2022-10-18T05:32:49.187Z,64.88
2022-10-18T05:33:49.184Z,64.93
2022-10-18T05:34:49.182Z,65.06
2022-10-18T05:35:49.200Z,65.35
2022-10-18T05:36:49.210Z,65.59
2022-10-18T05:38:49.197Z,65.56
2022-10-18T05:39:49.193Z,65.56
2022-10-18T05:40:49.505Z,65.61
2022-10-18T05:41:49.225Z,65.66
2022-10-18T05:42:49.194Z,65.66
2022-10-18T05:43:49.189Z,65.66
2022-10-18T05:44:49.205Z,65.57
2022-10-18T05:45:49.197Z,65.84
2022-10-18T05:46:49.220Z,66.14
2022-10-18T05:47:49.218Z,66.88
2022-10-18T05:48:49.205Z,66.88
2022-10-18T05:49:49.218Z,66.77
2022-10-18T05:50:49.241Z,66.11
2022-10-18T05:51:49.209Z,66.11
2022-10-18T05:52:49.241Z,65.75
2022-10-18T05:53:49.227Z,65.54
2022-10-18T05:54:49.239Z,65.04
2022-10-18T05:55:49.236Z,65.04
2022-10-18T05:56:49.235Z,64.83
2022-10-18T05:57:49.270Z,64.62
2022-10-18T05:58:49.264Z,64.60
2022-10-18T06:00:49.252Z,64.50
2022-10-18T06:01:49.270Z,65.01
2022-10-18T06:02:49.270Z,65.01
2022-10-18T06:03:49.262Z,64.84
2022-10-18T06:04:49.272Z,64.84
2022-10-18T06:05:49.269Z,64.69
2022-10-18T06:06:49.251Z,64.54
2022-10-18T06:07:49.282Z,64.48
2022-10-18T06:09:49.300Z,64.35
2022-10-18T06:10:51.122Z,64.20
2022-10-18T06:11:49.276Z,64.09
2022-10-18T06:12:49.286Z,64.09
2022-10-18T06:13:49.288Z,64.15
2022-10-18T06:14:49.289Z,64.40
2022-10-18T06:16:49.290Z,64.51
2022-10-18T06:19:49.308Z,64.40
2022-10-18T06:20:49.284Z,64.40
2022-10-18T06:21:49.318Z,64.27
2022-10-18T06:22:49.286Z,64.27
2022-10-18T06:23:49.304Z,64.16
2022-10-18T06:24:52.697Z,64.05
2022-10-18T06:25:49.322Z,63.94
2022-10-18T06:26:49.333Z,63.84
2022-10-18T06:27:49.303Z,63.84
2022-10-18T06:28:49.355Z,63.75
2022-10-18T06:29:49.330Z,63.63
2022-10-18T06:30:49.341Z,63.54
2022-10-18T06:31:49.332Z,63.35
2022-10-18T06:32:49.334Z,63.31
2022-10-18T06:33:49.370Z,63.31
2022-10-18T06:34:49.371Z,63.23
2022-10-18T06:35:49.339Z,63.23
2022-10-18T06:36:49.338Z,63.13
2022-10-18T06:37:49.335Z,63.07
2022-10-18T06:38:49.347Z,63.00
2022-10-18T06:39:49.335Z,62.83
2022-10-18T06:40:49.394Z,62.63
2022-10-18T06:41:49.350Z,62.63
2022-10-18T06:42:59.929Z,62.27
2022-10-18T06:43:49.350Z,62.10
2022-10-18T06:44:49.350Z,62.10
2022-10-18T06:45:49.362Z,62.03
2022-10-18T06:46:49.389Z,61.98
2022-10-18T06:47:49.348Z,61.94
2022-10-18T06:48:49.374Z,61.87
2022-10-18T06:49:49.368Z,61.86
2022-10-18T06:50:49.377Z,61.76
2022-10-18T06:51:49.369Z,61.76
2022-10-18T06:52:49.398Z,60.90
2022-10-18T06:53:59.655Z,59.95
2022-10-18T06:54:49.986Z,58.60
2022-10-18T06:55:49.396Z,57.04
2022-10-18T06:56:49.413Z,55.56
2022-10-18T06:57:49.452Z,54.19
2022-10-18T06:58:49.559Z,52.72
2022-10-18T06:59:49.417Z,51.28
2022-10-18T07:00:49.419Z,50.31
2022-10-18T07:01:49.413Z,48.73
2022-10-18T07:02:49.405Z,47.54
2022-10-18T07:03:49.468Z,47.54
2022-10-18T07:04:49.400Z,45.33
2022-10-18T07:05:49.422Z,45.33
2022-10-18T07:06:49.465Z,43.59
2022-10-18T07:07:52.902Z,42.58
2022-10-18T07:08:49.405Z,42.58
2022-10-18T07:09:49.491Z,42.12
2022-10-18T07:10:49.422Z,41.79
2022-10-18T07:11:49.449Z,41.79
2022-10-18T07:12:49.440Z,40.80
2022-10-18T07:13:49.452Z,40.12
2022-10-18T07:14:49.418Z,40.12
2022-10-18T07:15:49.454Z,39.46
2022-10-18T07:16:49.475Z,37.82
2022-10-18T07:17:49.425Z,37.82
2022-10-18T07:18:49.454Z,37.62
2022-10-18T07:19:49.445Z,37.55
2022-10-18T07:20:49.462Z,36.58
2022-10-18T07:21:49.495Z,36.23
2022-10-18T07:22:49.468Z,36.33
2022-10-18T07:23:49.466Z,36.54
2022-10-18T07:24:49.507Z,35.87
2022-10-18T07:25:49.471Z,35.77
2022-10-18T07:26:49.461Z,35.77
2022-10-18T07:27:49.489Z,35.46
2022-10-18T07:28:49.480Z,34.79
2022-10-18T07:29:49.477Z,34.39
2022-10-18T07:30:49.473Z,34.39
2022-10-18T07:31:50.176Z,34.19
2022-10-18T07:32:49.463Z,34.19
2022-10-18T07:33:49.550Z,33.89
2022-10-18T07:34:49.533Z,33.68
2022-10-18T07:35:49.487Z,33.38
2022-10-18T07:36:49.513Z,32.82
2022-10-18T07:37:49.525Z,31.99
2022-10-18T07:38:49.522Z,31.99
2022-10-18T07:39:49.541Z,31.31
2022-10-18T07:40:49.510Z,31.33
2022-10-18T07:41:49.532Z,31.38
2022-10-18T07:42:49.494Z,31.38
2022-10-18T07:43:49.499Z,31.31
2022-10-18T07:44:49.505Z,30.57
2022-10-18T07:45:49.549Z,30.57
2022-10-18T07:46:49.538Z,29.89
2022-10-18T07:47:49.529Z,29.89
2022-10-18T07:48:49.528Z,29.73
2022-10-18T07:49:49.542Z,29.19
2022-10-18T07:50:49.539Z,28.97
2022-10-18T07:51:49.551Z,28.97
2022-10-18T07:52:49.551Z,28.61
2022-10-18T07:53:49.562Z,28.33
2022-10-18T07:55:49.555Z,27.74
2022-10-18T07:56:49.568Z,27.74
2022-10-18T07:58:49.597Z,27.56
2022-10-18T07:59:49.560Z,27.56
2022-10-18T08:00:49.571Z,27.43
2022-10-18T08:01:49.596Z,27.43
2022-10-18T08:02:49.588Z,27.21
2022-10-18T08:03:49.569Z,27.20
2022-10-18T08:04:49.590Z,27.20
2022-10-18T08:05:49.577Z,26.91
2022-10-18T08:06:49.613Z,26.44
2022-10-18T08:07:49.563Z,26.44
2022-10-18T08:08:50.399Z,26.35
2022-10-18T08:09:49.582Z,26.35
2022-10-18T08:10:49.691Z,26.29
2022-10-18T08:11:49.606Z,26.02
2022-10-18T08:12:49.572Z,26.02
2022-10-18T08:13:49.605Z,25.63
2022-10-18T08:14:49.605Z,25.29
2022-10-18T08:15:49.617Z,24.82
2022-10-18T08:16:49.645Z,24.85
2022-10-18T08:17:49.637Z,24.69
2022-10-18T08:18:49.613Z,24.69
2022-10-18T08:20:04.656Z,24.52
2022-10-18T08:20:49.613Z,24.28
2022-10-18T08:21:49.594Z,24.28
2022-10-18T08:22:49.669Z,23.97
2022-10-18T08:23:49.620Z,23.77
2022-10-18T08:24:49.613Z,23.72
2022-10-18T08:25:49.602Z,23.65
2022-10-18T08:26:49.637Z,23.63
2022-10-18T08:27:49.637Z,23.41
2022-10-18T08:28:58.216Z,23.41
2022-10-18T08:29:49.709Z,23.26
2022-10-18T08:30:49.658Z,24.00
2022-10-18T08:31:49.650Z,24.00
2022-10-18T08:32:49.665Z,24.07
2022-10-18T08:33:49.652Z,24.23
2022-10-18T08:34:49.752Z,24.50
2022-10-18T08:35:49.639Z,24.37
2022-10-18T08:36:49.662Z,24.30
2022-10-18T08:37:49.691Z,24.10
2022-10-18T08:38:49.643Z,24.10
2022-10-18T08:39:49.685Z,23.51
2022-10-18T08:40:49.745Z,23.23
2022-10-18T08:41:49.675Z,23.19
2022-10-18T08:42:49.679Z,23.07
2022-10-18T08:43:49.676Z,22.91
2022-10-18T08:44:49.659Z,22.91
2022-10-18T08:45:50.686Z,22.51
2022-10-18T08:46:49.665Z,22.51
2022-10-18T08:47:49.703Z,22.44
2022-10-18T08:48:49.687Z,22.10
2022-10-18T08:49:49.712Z,22.03
2022-10-18T08:50:49.698Z,22.03
2022-10-18T08:51:49.701Z,22.39
2022-10-18T08:52:49.692Z,22.42
2022-10-18T08:53:49.742Z,22.19
2022-10-18T08:54:49.699Z,22.19
2022-10-18T08:55:49.733Z,22.32
2022-10-18T08:56:49.704Z,22.32
2022-10-18T08:57:49.713Z,22.35
2022-10-18T08:58:49.693Z,22.12
2022-10-18T08:59:49.736Z,22.04
2022-10-18T09:00:49.754Z,21.96
2022-10-18T09:01:49.803Z,21.96
2022-10-18T09:02:49.785Z,21.76
2022-10-18T09:03:49.856Z,21.54
2022-10-18T09:04:49.723Z,21.54
2022-10-18T09:05:49.753Z,21.10
2022-10-18T09:06:49.756Z,21.05
2022-10-18T09:07:49.759Z,20.98
2022-10-18T09:08:49.733Z,20.61
2022-10-18T09:09:49.767Z,20.53
2022-10-18T09:10:49.842Z,20.53
2022-10-18T09:11:49.782Z,20.29
2022-10-18T09:12:49.779Z,20.29
2022-10-18T09:13:49.749Z,20.30
2022-10-18T09:14:49.756Z,20.30
2022-10-18T09:15:49.762Z,20.34
2022-10-18T09:16:49.781Z,20.00
2022-10-18T09:17:49.783Z,20.05
2022-10-18T09:18:49.773Z,20.14
2022-10-18T09:19:49.837Z,20.11
2022-10-18T09:20:49.783Z,20.08
2022-10-18T09:21:49.776Z,20.08
2022-10-18T09:22:50.811Z,20.07
2022-10-18T09:23:49.785Z,20.07
2022-10-18T09:24:49.842Z,20.14
2022-10-18T09:25:49.805Z,19.97
2022-10-18T09:26:49.803Z,19.79
2022-10-18T09:27:49.809Z,20.06
2022-10-18T09:28:49.845Z,20.30
2022-10-18T09:29:49.803Z,20.53
2022-10-18T09:30:49.829Z,20.57
2022-10-18T09:31:49.834Z,20.65
2022-10-18T09:32:49.798Z,20.65
2022-10-18T09:33:49.820Z,21.33
2022-10-18T09:34:49.811Z,21.33
2022-10-18T09:35:49.810Z,21.63
2022-10-18T09:36:49.826Z,22.73
2022-10-18T09:37:49.839Z,22.73
2022-10-18T09:38:49.808Z,23.15
2022-10-18T09:39:49.852Z,24.43
2022-10-18T09:40:49.818Z,24.43
2022-10-18T09:41:49.807Z,24.78
2022-10-18T09:42:49.866Z,25.65
2022-10-18T09:43:49.848Z,26.21
2022-10-18T09:44:49.841Z,26.71
2022-10-18T09:45:49.833Z,26.71
2022-10-18T09:46:49.855Z,27.29
2022-10-18T09:47:49.835Z,27.29
2022-10-18T09:48:49.867Z,27.28
2022-10-18T09:49:49.842Z,27.39
2022-10-18T09:50:49.872Z,27.79
2022-10-18T09:51:49.842Z,28.22
2022-10-18T09:52:49.878Z,28.78
2022-10-18T09:53:49.865Z,28.78
2022-10-18T09:54:49.868Z,28.53
2022-10-18T09:55:49.865Z,28.84
2022-10-18T09:56:49.974Z,29.43
2022-10-18T09:57:49.872Z,29.43
2022-10-18T09:58:49.866Z,29.65
2022-10-18T09:59:51.006Z,30.10
2022-10-18T10:00:49.893Z,30.10
2022-10-18T10:01:49.916Z,30.41
2022-10-18T10:02:49.949Z,30.47
2022-10-18T10:03:49.897Z,30.47
2022-10-18T10:04:49.905Z,30.54
2022-10-18T10:05:49.911Z,30.77
2022-10-18T10:06:49.916Z,30.98
2022-10-18T10:07:49.925Z,30.90
2022-10-18T10:08:49.905Z,30.90
2022-10-18T10:09:49.914Z,31.31
2022-10-18T10:10:49.914Z,31.69
2022-10-18T10:11:49.932Z,32.03
2022-10-18T10:12:49.895Z,32.03
2022-10-18T10:13:49.927Z,32.24
2022-10-18T10:16:49.941Z,32.51
2022-10-18T10:17:49.949Z,32.57
2022-10-18T10:18:49.949Z,32.85
2022-10-18T10:19:49.968Z,32.72
2022-10-18T10:20:49.939Z,32.93
2022-10-18T10:21:49.914Z,32.93
2022-10-18T10:22:49.932Z,33.05
2022-10-18T10:23:49.954Z,32.99
2022-10-18T10:24:49.962Z,33.26
2022-10-18T10:25:49.958Z,33.43
2022-10-18T10:26:49.957Z,33.43
2022-10-18T10:27:49.961Z,33.55
2022-10-18T10:28:50.048Z,33.59
2022-10-18T10:29:50.087Z,33.39
2022-10-18T10:30:49.972Z,33.50
2022-10-18T10:31:49.973Z,33.50
2022-10-18T10:32:50.014Z,34.21
2022-10-18T10:33:49.970Z,34.21
2022-10-18T10:34:49.988Z,34.32
2022-10-18T10:35:53.369Z,34.09
2022-10-18T10:36:51.226Z,34.11
2022-10-18T10:37:49.976Z,34.11
2022-10-18T10:38:50.000Z,34.18
2022-10-18T10:40:06.902Z,34.37
2022-10-18T10:40:49.996Z,34.41
2022-10-18T10:41:49.998Z,34.55
2022-10-18T10:43:50.034Z,34.64
2022-10-18T10:44:50.016Z,34.63
2022-10-18T10:46:49.998Z,34.51
2022-10-18T10:47:50.034Z,34.62
2022-10-18T10:48:50.027Z,34.62
2022-10-18T10:49:50.028Z,35.23
2022-10-18T10:50:51.971Z,35.05
2022-10-18T10:51:53.767Z,34.95
2022-10-18T10:52:50.015Z,34.95
2022-10-18T10:53:50.028Z,34.60
2022-10-18T10:54:52.115Z,34.72
2022-10-18T10:55:50.048Z,34.71
2022-10-18T10:56:50.037Z,34.74
2022-10-18T10:57:50.040Z,34.31
2022-10-18T10:58:50.139Z,34.52
2022-10-18T11:00:50.057Z,34.41
2022-10-18T11:01:50.050Z,34.41
2022-10-18T11:02:59.404Z,34.55
2022-10-18T11:03:50.171Z,34.85
2022-10-18T11:04:50.055Z,34.85
2022-10-18T11:06:50.053Z,35.15
2022-10-18T11:07:50.070Z,34.83
2022-10-18T11:08:50.131Z,34.97
2022-10-18T11:09:50.056Z,34.90
2022-10-18T11:10:50.058Z,34.90
2022-10-18T11:11:50.055Z,34.94
2022-10-18T11:12:50.052Z,35.06
2022-10-18T11:14:01.594Z,34.98
2022-10-18T11:14:50.056Z,34.98
2022-10-18T11:16:50.086Z,35.23
2022-10-18T11:17:50.167Z,35.28
2022-10-18T11:18:50.093Z,35.28
2022-10-18T11:19:50.094Z,35.12
2022-10-18T11:20:50.082Z,35.35
2022-10-18T11:21:50.087Z,35.82
2022-10-18T11:22:50.115Z,35.44
2022-10-18T11:23:50.116Z,35.37
2022-10-18T11:24:50.110Z,35.37
2022-10-18T11:25:50.097Z,35.41
2022-10-18T11:26:53.845Z,35.91
2022-10-18T11:27:50.124Z,35.73
2022-10-18T11:28:50.183Z,35.51
2022-10-18T11:29:50.141Z,35.59
2022-10-18T11:31:50.145Z,35.38
2022-10-18T11:32:50.125Z,35.38
2022-10-18T11:34:08.078Z,35.01
2022-10-18T11:34:50.139Z,35.04
2022-10-18T11:35:50.124Z,35.35
2022-10-18T11:36:57.856Z,35.70
2022-10-18T11:37:50.163Z,35.91
2022-10-18T11:38:50.131Z,35.91
2022-10-18T11:39:50.182Z,36.19
2022-10-18T11:40:50.140Z,36.19
2022-10-18T11:41:50.202Z,36.40
2022-10-18T11:42:50.153Z,36.51
2022-10-18T11:44:50.162Z,36.51
2022-10-18T11:45:50.157Z,36.51
2022-10-18T11:46:50.155Z,36.72
2022-10-18T11:47:53.548Z,36.86
2022-10-18T11:48:50.176Z,36.90
2022-10-18T11:49:50.180Z,36.90
2022-10-18T11:50:51.642Z,36.60
2022-10-18T11:52:07.428Z,36.60
2022-10-18T11:52:50.164Z,36.46
2022-10-18T11:53:51.985Z,36.46
2022-10-18T11:54:50.185Z,36.73
2022-10-18T11:56:50.204Z,36.15
2022-10-18T11:57:50.194Z,35.66
2022-10-18T11:58:50.190Z,35.66
2022-10-18T11:59:50.203Z,36.74
2022-10-18T12:00:50.230Z,36.41
2022-10-18T12:02:50.220Z,36.49
2022-10-18T12:03:50.217Z,36.59
2022-10-18T12:05:05.357Z,36.76
2022-10-18T12:05:50.217Z,36.74
2022-10-18T12:06:50.316Z,36.58
2022-10-18T12:07:50.222Z,36.57
2022-10-18T12:08:50.214Z,36.57
2022-10-18T12:09:50.317Z,36.68
2022-10-18T12:11:04.120Z,36.68
2022-10-18T12:11:53.559Z,36.60
2022-10-18T12:13:50.228Z,36.49
2022-10-18T12:14:50.242Z,36.65
2022-10-18T12:15:50.238Z,36.92
2022-10-18T12:17:50.354Z,37.29
2022-10-18T12:18:50.297Z,37.61
2022-10-18T12:19:50.257Z,37.61
2022-10-18T12:20:50.279Z,37.72
2022-10-18T12:21:50.249Z,37.65
2022-10-18T12:23:50.261Z,38.02
2022-10-18T12:24:50.268Z,38.01
2022-10-18T12:25:50.266Z,37.89
2022-10-18T12:26:50.260Z,38.02
2022-10-18T12:27:51.860Z,37.86
2022-10-18T12:28:50.328Z,37.86
2022-10-18T12:29:50.637Z,37.99
2022-10-18T12:30:50.284Z,37.97
2022-10-18T12:31:50.281Z,37.73
2022-10-18T12:33:03.498Z,37.83
2022-10-18T12:35:50.342Z,37.43
2022-10-18T12:36:50.338Z,37.43
2022-10-18T12:37:50.294Z,37.57
2022-10-18T12:38:50.296Z,37.59
2022-10-18T12:40:09.360Z,37.70
2022-10-18T12:41:50.305Z,37.45
2022-10-18T12:42:50.327Z,38.03
2022-10-18T12:43:50.334Z,37.89
2022-10-18T12:44:50.334Z,37.92
2022-10-18T12:45:50.325Z,37.92
2022-10-18T12:46:50.367Z,37.70
2022-10-18T12:47:50.329Z,37.70
2022-10-18T12:48:50.326Z,37.81
2022-10-18T12:49:50.323Z,37.54
2022-10-18T12:50:50.318Z,37.65
2022-10-18T12:51:50.335Z,37.40
2022-10-18T12:52:50.372Z,37.67
2022-10-18T12:53:50.337Z,37.67
2022-10-18T12:55:50.352Z,37.79
2022-10-18T12:56:50.351Z,37.76
2022-10-18T12:57:50.362Z,38.05
2022-10-18T12:58:50.332Z,38.05
2022-10-18T12:59:50.345Z,38.18
2022-10-18T13:00:50.364Z,38.21
2022-10-18T13:01:50.484Z,37.98
2022-10-18T13:02:50.352Z,38.17
2022-10-18T13:03:50.406Z,38.10
2022-10-18T13:04:52.073Z,38.17
2022-10-18T13:05:52.937Z,38.21
2022-10-18T13:06:50.418Z,38.21
2022-10-18T13:07:50.403Z,38.25
2022-10-18T13:08:50.412Z,38.15
2022-10-18T13:09:50.358Z,38.15
2022-10-18T13:10:50.405Z,38.06
2022-10-18T13:11:50.391Z,38.13
2022-10-18T13:16:50.387Z,38.18
2022-10-18T13:18:50.385Z,38.05
2022-10-18T13:20:02.924Z,37.92
2022-10-18T13:20:50.454Z,38.10
2022-10-18T13:21:50.447Z,38.23
2022-10-18T13:22:50.407Z,38.23
2022-10-18T13:23:50.398Z,38.37
2022-10-18T13:24:50.404Z,38.49
2022-10-18T13:25:50.427Z,38.46
2022-10-18T13:26:58.215Z,38.40
2022-10-18T13:27:50.461Z,38.25
2022-10-18T13:28:50.497Z,38.25
2022-10-18T13:29:50.434Z,38.41
2022-10-18T13:30:50.449Z,38.36
2022-10-18T13:31:50.443Z,38.55
2022-10-18T13:32:50.469Z,38.71
2022-10-18T13:33:50.457Z,38.57
2022-10-18T13:34:50.518Z,38.72
2022-10-18T13:35:50.503Z,38.72
2022-10-18T13:36:50.464Z,38.65
2022-10-18T13:37:50.483Z,38.65
2022-10-18T13:39:50.501Z,38.71
2022-10-18T13:40:50.504Z,38.42
2022-10-18T13:41:56.527Z,38.38
2022-10-18T13:42:50.488Z,38.49
2022-10-18T13:43:52.542Z,38.49
2022-10-18T13:44:50.484Z,39.08
2022-10-18T13:45:50.490Z,39.08
2022-10-18T13:47:50.475Z,39.10
2022-10-18T13:48:50.534Z,38.74
2022-10-18T13:49:50.510Z,38.83
2022-10-18T13:50:50.510Z,39.16
2022-10-18T13:51:50.480Z,39.16
2022-10-18T13:52:50.510Z,39.54
2022-10-18T13:53:50.488Z,39.73
2022-10-18T13:54:50.518Z,39.71
2022-10-18T13:56:50.513Z,39.72
2022-10-18T13:59:05.789Z,39.36
2022-10-18T14:00:50.521Z,39.09
2022-10-18T14:02:54.466Z,39.03
2022-10-18T14:03:57.671Z,39.03
2022-10-18T14:06:50.521Z,39.17
2022-10-18T14:08:50.538Z,39.05
2022-10-18T14:09:54.127Z,39.20
2022-10-18T14:11:01.760Z,39.04
2022-10-18T14:11:50.582Z,39.11
2022-10-18T14:12:50.571Z,39.21
2022-10-18T14:13:50.537Z,39.21
2022-10-18T14:14:50.593Z,39.04
2022-10-18T14:15:50.553Z,39.04
2022-10-18T14:16:50.555Z,39.25
2022-10-18T14:17:50.568Z,39.45
2022-10-18T14:18:52.381Z,39.51
2022-10-18T14:19:50.578Z,39.54
2022-10-18T14:21:12.231Z,39.54
2022-10-18T14:21:50.577Z,39.67
2022-10-18T14:22:50.582Z,39.67
2022-10-18T14:23:50.560Z,39.80
2022-10-18T14:24:50.595Z,39.87
2022-10-18T14:26:50.578Z,39.91
2022-10-18T14:27:53.664Z,39.91
2022-10-18T14:32:50.610Z,40.37
2022-10-18T14:33:54.891Z,40.12
2022-10-18T14:34:50.601Z,40.12
2022-10-18T14:35:50.606Z,40.45
2022-10-18T14:36:50.619Z,40.37
2022-10-18T14:37:50.606Z,40.37
2022-10-18T14:38:50.672Z,40.33
2022-10-18T14:39:50.618Z,40.33
2022-10-18T14:40:50.628Z,40.27
2022-10-18T14:41:50.668Z,40.44
2022-10-18T14:42:50.639Z,40.44
2022-10-18T14:43:50.601Z,40.24
2022-10-18T14:44:54.402Z,40.07
2022-10-18T14:45:50.616Z,39.97
2022-10-18T14:46:50.632Z,39.90
2022-10-18T14:47:50.634Z,39.88
2022-10-18T14:48:50.655Z,40.03
2022-10-18T14:49:50.656Z,40.29
2022-10-18T14:50:50.636Z,40.29
2022-10-18T14:51:50.662Z,39.99
2022-10-18T14:53:50.658Z,40.29
2022-10-18T14:54:50.668Z,40.29
2022-10-18T14:55:52.626Z,40.46
2022-10-18T14:56:50.680Z,40.46
2022-10-18T14:57:50.684Z,40.59
2022-10-18T14:58:50.658Z,40.59
2022-10-18T14:59:50.661Z,40.78
2022-10-18T15:00:50.699Z,40.90
2022-10-18T15:01:50.686Z,40.95
2022-10-18T15:02:50.668Z,40.75
2022-10-18T15:03:50.693Z,40.75
2022-10-18T15:05:50.683Z,41.13
2022-10-18T15:06:50.745Z,40.90
2022-10-18T15:07:50.687Z,40.90
2022-10-18T15:08:50.728Z,40.75